sensor_id;sensor_type;location;lat;lon;timestamp;P1;durP1;ratioP1;P2;durP2;ratioP2
79487;SDS011;68949;53.176;18.088;2023-07-20T00:00:02;6.70;;;3.30;;
79487;SDS011;68949;53.176;18.088;2023-07-20T00:03:10;8.00;;;3.90;;
79487;SDS011;68949;53.176;18.088;2023-07-20T00:05:43;9.20;;;3.80;;
79487;SDS011;68949;53.176;18.088;2023-07-20T00:08:10;11.20;;;4.60;;
79487;SDS011;68949;53.176;18.088;2023-07-20T00:10:37;6.70;;;3.60;;
79487;SDS011;68949;53.176;18.088;2023-07-20T00:13:03;7.20;;;3.90;;
79487;SDS011;68949;53.176;18.088;2023-07-20T00:15:30;7.90;;;3.30;;
79487;SDS011;68949;53.176;18.088;2023-07-20T00:17:57;8.50;;;4.00;;
79487;SDS011;68949;53.176;18.088;2023-07-20T00:20:24;6.70;;;3.60;;
79487;SDS011;68949;53.176;18.088;2023-07-20T00:22:51;6.50;;;3.40;;
79487;SDS011;68949;53.176;18.088;2023-07-20T00:25:18;7.20;;;3.40;;
79487;SDS011;68949;53.176;18.088;2023-07-20T00:27:45;6.70;;;3.70;;
79487;SDS011;68949;53.176;18.088;2023-07-20T00:30:12;7.80;;;3.50;;
79487;SDS011;68949;53.176;18.088;2023-07-20T00:32:39;8.80;;;3.80;;
79487;SDS011;68949;53.176;18.088;2023-07-20T00:35:06;6.90;;;3.60;;
79487;SDS011;68949;53.176;18.088;2023-07-20T00:37:33;7.10;;;3.20;;
79487;SDS011;68949;53.176;18.088;2023-07-20T00:39:59;9.90;;;4.30;;
79487;SDS011;68949;53.176;18.088;2023-07-20T00:42:26;7.90;;;3.80;;
79487;SDS011;68949;53.176;18.088;2023-07-20T00:44:53;7.80;;;3.80;;
79487;SDS011;68949;53.176;18.088;2023-07-20T00:47:19;6.80;;;3.50;;
79487;SDS011;68949;53.176;18.088;2023-07-20T00:49:46;6.30;;;3.70;;
79487;SDS011;68949;53.176;18.088;2023-07-20T00:52:13;6.30;;;3.40;;
79487;SDS011;68949;53.176;18.088;2023-07-20T00:54:43;5.60;;;3.00;;
79487;SDS011;68949;53.176;18.088;2023-07-20T00:57:14;6.80;;;3.60;;
79487;SDS011;68949;53.176;18.088;2023-07-20T00:59:46;8.00;;;4.40;;
79487;SDS011;68949;53.176;18.088;2023-07-20T01:02:12;8.20;;;3.80;;
79487;SDS011;68949;53.176;18.088;2023-07-20T01:04:40;8.70;;;3.90;;
79487;SDS011;68949;53.176;18.088;2023-07-20T01:07:17;7.30;;;3.30;;
79487;SDS011;68949;53.176;18.088;2023-07-20T01:10:05;9.00;;;3.50;;
79487;SDS011;68949;53.176;18.088;2023-07-20T01:15:14;9.40;;;4.20;;
79487;SDS011;68949;53.176;18.088;2023-07-20T01:17:41;8.50;;;4.50;;
79487;SDS011;68949;53.176;18.088;2023-07-20T01:20:11;10.30;;;4.40;;
79487;SDS011;68949;53.176;18.088;2023-07-20T01:25:50;7.70;;;4.50;;
79487;SDS011;68949;53.176;18.088;2023-07-20T01:31:30;10.30;;;4.00;;
79487;SDS011;68949;53.176;18.088;2023-07-20T01:34:01;9.30;;;4.70;;
79487;SDS011;68949;53.176;18.088;2023-07-20T01:36:34;9.30;;;5.00;;
79487;SDS011;68949;53.176;18.088;2023-07-20T01:39:03;8.90;;;4.80;;
79487;SDS011;68949;53.176;18.088;2023-07-20T01:41:31;7.90;;;4.30;;
79487;SDS011;68949;53.176;18.088;2023-07-20T01:43:59;8.50;;;4.40;;
79487;SDS011;68949;53.176;18.088;2023-07-20T01:46:26;7.80;;;4.20;;
79487;SDS011;68949;53.176;18.088;2023-07-20T01:48:54;7.80;;;4.50;;
79487;SDS011;68949;53.176;18.088;2023-07-20T01:51:21;8.30;;;3.30;;
79487;SDS011;68949;53.176;18.088;2023-07-20T01:53:49;6.30;;;3.60;;
79487;SDS011;68949;53.176;18.088;2023-07-20T01:56:15;7.00;;;3.80;;
79487;SDS011;68949;53.176;18.088;2023-07-20T01:58:42;9.50;;;5.20;;
79487;SDS011;68949;53.176;18.088;2023-07-20T02:01:09;7.40;;;4.20;;
79487;SDS011;68949;53.176;18.088;2023-07-20T02:03:35;9.80;;;5.70;;
79487;SDS011;68949;53.176;18.088;2023-07-20T02:06:02;9.10;;;5.70;;
79487;SDS011;68949;53.176;18.088;2023-07-20T02:08:28;8.70;;;5.00;;
79487;SDS011;68949;53.176;18.088;2023-07-20T02:10:57;8.70;;;4.50;;
79487;SDS011;68949;53.176;18.088;2023-07-20T02:13:24;7.70;;;4.90;;
79487;SDS011;68949;53.176;18.088;2023-07-20T02:15:50;7.90;;;4.60;;
79487;SDS011;68949;53.176;18.088;2023-07-20T02:18:17;8.60;;;4.20;;
79487;SDS011;68949;53.176;18.088;2023-07-20T02:20:44;11.40;;;5.00;;
79487;SDS011;68949;53.176;18.088;2023-07-20T02:23:11;8.80;;;5.20;;
79487;SDS011;68949;53.176;18.088;2023-07-20T02:25:38;8.50;;;5.30;;
79487;SDS011;68949;53.176;18.088;2023-07-20T02:28:07;11.40;;;5.40;;
79487;SDS011;68949;53.176;18.088;2023-07-20T02:30:38;6.00;;;3.40;;
79487;SDS011;68949;53.176;18.088;2023-07-20T02:33:07;9.60;;;4.60;;
79487;SDS011;68949;53.176;18.088;2023-07-20T02:35:33;9.60;;;4.60;;
79487;SDS011;68949;53.176;18.088;2023-07-20T02:38:00;7.90;;;3.60;;
79487;SDS011;68949;53.176;18.088;2023-07-20T02:40:27;8.10;;;3.60;;
79487;SDS011;68949;53.176;18.088;2023-07-20T02:42:54;6.70;;;2.90;;
79487;SDS011;68949;53.176;18.088;2023-07-20T02:45:20;7.50;;;3.00;;
79487;SDS011;68949;53.176;18.088;2023-07-20T02:47:47;10.20;;;3.60;;
79487;SDS011;68949;53.176;18.088;2023-07-20T02:50:14;5.90;;;2.70;;
79487;SDS011;68949;53.176;18.088;2023-07-20T02:52:40;6.50;;;3.50;;
79487;SDS011;68949;53.176;18.088;2023-07-20T02:55:07;6.50;;;3.60;;
79487;SDS011;68949;53.176;18.088;2023-07-20T02:57:34;6.40;;;3.10;;
79487;SDS011;68949;53.176;18.088;2023-07-20T03:00:03;6.20;;;3.10;;
79487;SDS011;68949;53.176;18.088;2023-07-20T03:02:32;6.80;;;3.30;;
79487;SDS011;68949;53.176;18.088;2023-07-20T03:04:59;9.70;;;4.00;;
79487;SDS011;68949;53.176;18.088;2023-07-20T03:07:29;7.60;;;3.70;;
79487;SDS011;68949;53.176;18.088;2023-07-20T03:09:56;7.50;;;3.60;;
79487;SDS011;68949;53.176;18.088;2023-07-20T03:12:23;7.00;;;3.40;;
79487;SDS011;68949;53.176;18.088;2023-07-20T03:14:50;8.30;;;3.90;;
79487;SDS011;68949;53.176;18.088;2023-07-20T03:17:17;6.40;;;3.50;;
79487;SDS011;68949;53.176;18.088;2023-07-20T03:19:45;9.30;;;3.40;;
79487;SDS011;68949;53.176;18.088;2023-07-20T03:22:12;6.50;;;3.20;;
79487;SDS011;68949;53.176;18.088;2023-07-20T03:24:38;6.60;;;3.30;;
79487;SDS011;68949;53.176;18.088;2023-07-20T03:27:05;9.30;;;3.80;;
79487;SDS011;68949;53.176;18.088;2023-07-20T03:29:32;7.80;;;3.80;;
79487;SDS011;68949;53.176;18.088;2023-07-20T03:32:00;6.00;;;3.00;;
79487;SDS011;68949;53.176;18.088;2023-07-20T03:34:26;7.00;;;2.70;;
79487;SDS011;68949;53.176;18.088;2023-07-20T03:36:53;6.20;;;3.10;;
79487;SDS011;68949;53.176;18.088;2023-07-20T03:39:19;7.50;;;3.60;;
79487;SDS011;68949;53.176;18.088;2023-07-20T03:41:46;8.00;;;4.40;;
79487;SDS011;68949;53.176;18.088;2023-07-20T03:44:13;9.10;;;3.80;;
79487;SDS011;68949;53.176;18.088;2023-07-20T03:46:39;9.10;;;4.00;;
79487;SDS011;68949;53.176;18.088;2023-07-20T03:49:06;6.90;;;3.60;;
79487;SDS011;68949;53.176;18.088;2023-07-20T03:51:35;7.10;;;3.70;;
79487;SDS011;68949;53.176;18.088;2023-07-20T03:54:02;8.10;;;3.70;;
79487;SDS011;68949;53.176;18.088;2023-07-20T03:56:28;6.50;;;3.20;;
79487;SDS011;68949;53.176;18.088;2023-07-20T03:58:57;7.70;;;3.60;;
79487;SDS011;68949;53.176;18.088;2023-07-20T04:01:24;8.80;;;3.80;;
79487;SDS011;68949;53.176;18.088;2023-07-20T04:03:51;9.00;;;4.10;;
79487;SDS011;68949;53.176;18.088;2023-07-20T04:06:17;8.20;;;3.40;;
79487;SDS011;68949;53.176;18.088;2023-07-20T04:08:44;8.40;;;3.20;;
79487;SDS011;68949;53.176;18.088;2023-07-20T04:11:13;5.70;;;3.00;;
79487;SDS011;68949;53.176;18.088;2023-07-20T04:13:40;7.40;;;3.10;;
79487;SDS011;68949;53.176;18.088;2023-07-20T04:16:06;9.10;;;3.90;;
79487;SDS011;68949;53.176;18.088;2023-07-20T04:18:33;6.70;;;3.70;;
79487;SDS011;68949;53.176;18.088;2023-07-20T04:21:00;8.10;;;3.70;;
79487;SDS011;68949;53.176;18.088;2023-07-20T04:23:26;6.60;;;2.80;;
79487;SDS011;68949;53.176;18.088;2023-07-20T04:25:53;4.80;;;2.30;;
79487;SDS011;68949;53.176;18.088;2023-07-20T04:28:20;4.80;;;2.70;;
79487;SDS011;68949;53.176;18.088;2023-07-20T04:30:49;7.50;;;2.90;;
79487;SDS011;68949;53.176;18.088;2023-07-20T04:33:19;9.10;;;3.40;;
79487;SDS011;68949;53.176;18.088;2023-07-20T04:35:54;8.80;;;3.60;;
79487;SDS011;68949;53.176;18.088;2023-07-20T04:38:25;10.60;;;3.60;;
79487;SDS011;68949;53.176;18.088;2023-07-20T04:41:05;7.60;;;3.30;;
79487;SDS011;68949;53.176;18.088;2023-07-20T04:43:36;5.10;;;2.90;;
79487;SDS011;68949;53.176;18.088;2023-07-20T04:46:03;5.70;;;2.90;;
79487;SDS011;68949;53.176;18.088;2023-07-20T04:48:33;4.90;;;1.90;;
79487;SDS011;68949;53.176;18.088;2023-07-20T04:50:59;7.80;;;2.80;;
79487;SDS011;68949;53.176;18.088;2023-07-20T04:53:26;6.80;;;2.80;;
79487;SDS011;68949;53.176;18.088;2023-07-20T04:55:53;6.50;;;3.00;;
79487;SDS011;68949;53.176;18.088;2023-07-20T04:58:22;6.00;;;2.60;;
79487;SDS011;68949;53.176;18.088;2023-07-20T05:00:49;7.10;;;2.70;;
79487;SDS011;68949;53.176;18.088;2023-07-20T05:03:16;5.80;;;2.10;;
79487;SDS011;68949;53.176;18.088;2023-07-20T05:05:43;4.80;;;2.00;;
79487;SDS011;68949;53.176;18.088;2023-07-20T05:08:11;6.00;;;2.20;;
79487;SDS011;68949;53.176;18.088;2023-07-20T05:10:37;6.40;;;1.80;;
79487;SDS011;68949;53.176;18.088;2023-07-20T05:13:04;6.50;;;1.70;;
79487;SDS011;68949;53.176;18.088;2023-07-20T05:15:33;4.90;;;1.80;;
79487;SDS011;68949;53.176;18.088;2023-07-20T05:18:01;4.80;;;1.80;;
79487;SDS011;68949;53.176;18.088;2023-07-20T05:20:28;4.10;;;2.00;;
79487;SDS011;68949;53.176;18.088;2023-07-20T05:22:56;5.80;;;1.70;;
79487;SDS011;68949;53.176;18.088;2023-07-20T05:25:22;5.80;;;1.90;;
79487;SDS011;68949;53.176;18.088;2023-07-20T05:27:49;3.80;;;1.50;;
79487;SDS011;68949;53.176;18.088;2023-07-20T05:30:16;4.20;;;1.80;;
79487;SDS011;68949;53.176;18.088;2023-07-20T05:32:43;4.10;;;1.70;;
79487;SDS011;68949;53.176;18.088;2023-07-20T05:35:12;3.90;;;1.40;;
79487;SDS011;68949;53.176;18.088;2023-07-20T05:37:40;4.20;;;1.20;;
79487;SDS011;68949;53.176;18.088;2023-07-20T05:40:07;5.10;;;1.30;;
79487;SDS011;68949;53.176;18.088;2023-07-20T05:42:35;3.90;;;1.30;;
79487;SDS011;68949;53.176;18.088;2023-07-20T05:45:01;4.70;;;1.30;;
79487;SDS011;68949;53.176;18.088;2023-07-20T05:47:28;3.20;;;1.00;;
79487;SDS011;68949;53.176;18.088;2023-07-20T05:49:55;3.90;;;1.30;;
79487;SDS011;68949;53.176;18.088;2023-07-20T05:52:22;3.60;;;1.10;;
79487;SDS011;68949;53.176;18.088;2023-07-20T05:54:48;3.90;;;1.30;;
79487;SDS011;68949;53.176;18.088;2023-07-20T05:57:15;4.00;;;1.20;;
79487;SDS011;68949;53.176;18.088;2023-07-20T05:59:41;4.80;;;1.50;;
79487;SDS011;68949;53.176;18.088;2023-07-20T06:02:11;5.20;;;1.80;;
79487;SDS011;68949;53.176;18.088;2023-07-20T06:04:39;4.90;;;1.20;;
79487;SDS011;68949;53.176;18.088;2023-07-20T06:07:06;6.20;;;2.00;;
79487;SDS011;68949;53.176;18.088;2023-07-20T06:09:34;2.60;;;0.90;;
79487;SDS011;68949;53.176;18.088;2023-07-20T06:12:01;2.90;;;0.90;;
79487;SDS011;68949;53.176;18.088;2023-07-20T06:14:28;3.00;;;0.90;;
79487;SDS011;68949;53.176;18.088;2023-07-20T06:16:55;3.30;;;0.90;;
79487;SDS011;68949;53.176;18.088;2023-07-20T06:19:21;3.00;;;0.80;;
79487;SDS011;68949;53.176;18.088;2023-07-20T06:21:49;3.40;;;1.20;;
79487;SDS011;68949;53.176;18.088;2023-07-20T06:24:18;3.60;;;0.80;;
79487;SDS011;68949;53.176;18.088;2023-07-20T06:26:45;2.60;;;1.00;;
79487;SDS011;68949;53.176;18.088;2023-07-20T06:29:11;3.50;;;1.40;;
79487;SDS011;68949;53.176;18.088;2023-07-20T06:31:38;3.80;;;1.00;;
79487;SDS011;68949;53.176;18.088;2023-07-20T06:34:05;4.30;;;1.00;;
79487;SDS011;68949;53.176;18.088;2023-07-20T06:36:31;3.30;;;1.00;;
79487;SDS011;68949;53.176;18.088;2023-07-20T06:38:58;5.00;;;1.50;;
79487;SDS011;68949;53.176;18.088;2023-07-20T06:41:25;5.50;;;1.50;;
79487;SDS011;68949;53.176;18.088;2023-07-20T06:43:51;4.80;;;1.50;;
79487;SDS011;68949;53.176;18.088;2023-07-20T06:46:18;4.20;;;1.10;;
79487;SDS011;68949;53.176;18.088;2023-07-20T06:48:45;3.30;;;1.00;;
79487;SDS011;68949;53.176;18.088;2023-07-20T06:51:12;3.20;;;1.00;;
79487;SDS011;68949;53.176;18.088;2023-07-20T06:53:38;4.40;;;1.50;;
79487;SDS011;68949;53.176;18.088;2023-07-20T06:56:05;4.40;;;1.20;;
79487;SDS011;68949;53.176;18.088;2023-07-20T06:58:32;3.80;;;1.00;;
79487;SDS011;68949;53.176;18.088;2023-07-20T07:00:59;3.40;;;0.90;;
79487;SDS011;68949;53.176;18.088;2023-07-20T07:03:30;4.50;;;1.00;;
79487;SDS011;68949;53.176;18.088;2023-07-20T07:05:57;3.00;;;0.80;;
79487;SDS011;68949;53.176;18.088;2023-07-20T07:08:24;4.10;;;1.00;;
79487;SDS011;68949;53.176;18.088;2023-07-20T07:10:52;3.70;;;1.00;;
79487;SDS011;68949;53.176;18.088;2023-07-20T07:13:19;4.30;;;1.30;;
79487;SDS011;68949;53.176;18.088;2023-07-20T07:15:46;3.00;;;0.90;;
79487;SDS011;68949;53.176;18.088;2023-07-20T07:18:12;3.50;;;1.20;;
79487;SDS011;68949;53.176;18.088;2023-07-20T07:20:39;5.00;;;1.10;;
79487;SDS011;68949;53.176;18.088;2023-07-20T07:23:05;3.50;;;0.90;;
79487;SDS011;68949;53.176;18.088;2023-07-20T07:25:32;2.70;;;1.00;;
79487;SDS011;68949;53.176;18.088;2023-07-20T07:27:59;4.10;;;0.90;;
79487;SDS011;68949;53.176;18.088;2023-07-20T07:30:26;3.90;;;0.90;;
79487;SDS011;68949;53.176;18.088;2023-07-20T07:32:53;3.80;;;1.10;;
79487;SDS011;68949;53.176;18.088;2023-07-20T07:35:19;3.70;;;1.30;;
79487;SDS011;68949;53.176;18.088;2023-07-20T07:37:46;2.80;;;0.80;;
79487;SDS011;68949;53.176;18.088;2023-07-20T07:40:13;3.50;;;0.90;;
79487;SDS011;68949;53.176;18.088;2023-07-20T07:42:39;3.90;;;1.60;;
79487;SDS011;68949;53.176;18.088;2023-07-20T07:45:06;4.20;;;0.90;;
79487;SDS011;68949;53.176;18.088;2023-07-20T07:47:33;3.80;;;0.70;;
79487;SDS011;68949;53.176;18.088;2023-07-20T07:50:00;3.60;;;0.80;;
79487;SDS011;68949;53.176;18.088;2023-07-20T07:52:27;4.00;;;1.00;;
79487;SDS011;68949;53.176;18.088;2023-07-20T07:54:54;3.50;;;0.80;;
79487;SDS011;68949;53.176;18.088;2023-07-20T07:57:20;2.60;;;0.70;;
79487;SDS011;68949;53.176;18.088;2023-07-20T07:59:47;1.90;;;0.60;;
79487;SDS011;68949;53.176;18.088;2023-07-20T08:02:13;2.30;;;0.60;;
79487;SDS011;68949;53.176;18.088;2023-07-20T08:04:40;2.40;;;0.50;;
79487;SDS011;68949;53.176;18.088;2023-07-20T08:07:07;2.90;;;0.80;;
79487;SDS011;68949;53.176;18.088;2023-07-20T08:09:34;2.80;;;0.70;;
79487;SDS011;68949;53.176;18.088;2023-07-20T08:12:00;3.20;;;0.70;;
79487;SDS011;68949;53.176;18.088;2023-07-20T08:14:27;2.50;;;0.60;;
79487;SDS011;68949;53.176;18.088;2023-07-20T08:16:53;2.10;;;0.70;;
79487;SDS011;68949;53.176;18.088;2023-07-20T08:19:20;2.00;;;0.60;;
79487;SDS011;68949;53.176;18.088;2023-07-20T08:21:47;2.30;;;0.70;;
79487;SDS011;68949;53.176;18.088;2023-07-20T08:24:14;2.80;;;0.70;;
79487;SDS011;68949;53.176;18.088;2023-07-20T08:26:40;1.90;;;0.50;;
79487;SDS011;68949;53.176;18.088;2023-07-20T08:29:07;2.00;;;0.40;;
79487;SDS011;68949;53.176;18.088;2023-07-20T08:31:34;1.90;;;0.40;;
79487;SDS011;68949;53.176;18.088;2023-07-20T08:34:00;2.50;;;0.50;;
79487;SDS011;68949;53.176;18.088;2023-07-20T08:36:27;3.50;;;0.70;;
79487;SDS011;68949;53.176;18.088;2023-07-20T08:38:54;1.50;;;0.40;;
79487;SDS011;68949;53.176;18.088;2023-07-20T08:41:21;4.10;;;0.70;;
79487;SDS011;68949;53.176;18.088;2023-07-20T08:43:48;2.70;;;0.70;;
79487;SDS011;68949;53.176;18.088;2023-07-20T08:46:16;3.30;;;0.90;;
79487;SDS011;68949;53.176;18.088;2023-07-20T08:48:43;2.30;;;0.70;;
79487;SDS011;68949;53.176;18.088;2023-07-20T08:51:11;2.70;;;0.90;;
79487;SDS011;68949;53.176;18.088;2023-07-20T08:53:39;3.20;;;0.80;;
79487;SDS011;68949;53.176;18.088;2023-07-20T08:56:06;4.80;;;1.20;;
79487;SDS011;68949;53.176;18.088;2023-07-20T08:58:39;3.80;;;0.70;;
79487;SDS011;68949;53.176;18.088;2023-07-20T09:01:09;3.30;;;0.90;;
79487;SDS011;68949;53.176;18.088;2023-07-20T09:03:36;2.20;;;0.60;;
79487;SDS011;68949;53.176;18.088;2023-07-20T09:06:06;2.40;;;0.70;;
79487;SDS011;68949;53.176;18.088;2023-07-20T09:08:32;2.50;;;0.50;;
79487;SDS011;68949;53.176;18.088;2023-07-20T09:10:59;2.90;;;0.80;;
79487;SDS011;68949;53.176;18.088;2023-07-20T09:13:26;3.20;;;0.70;;
79487;SDS011;68949;53.176;18.088;2023-07-20T09:15:53;3.40;;;0.80;;
79487;SDS011;68949;53.176;18.088;2023-07-20T09:18:28;2.60;;;0.90;;
79487;SDS011;68949;53.176;18.088;2023-07-20T09:21:02;2.90;;;0.70;;
79487;SDS011;68949;53.176;18.088;2023-07-20T09:23:31;3.20;;;0.80;;
79487;SDS011;68949;53.176;18.088;2023-07-20T09:26:12;1.90;;;0.50;;
79487;SDS011;68949;53.176;18.088;2023-07-20T09:28:44;3.10;;;0.60;;
79487;SDS011;68949;53.176;18.088;2023-07-20T09:31:19;3.90;;;0.80;;
79487;SDS011;68949;53.176;18.088;2023-07-20T09:33:48;2.40;;;0.70;;
79487;SDS011;68949;53.176;18.088;2023-07-20T09:36:16;3.00;;;0.80;;
79487;SDS011;68949;53.176;18.088;2023-07-20T09:38:43;2.70;;;0.60;;
79487;SDS011;68949;53.176;18.088;2023-07-20T09:41:14;1.90;;;0.60;;
79487;SDS011;68949;53.176;18.088;2023-07-20T09:43:50;1.80;;;0.50;;
79487;SDS011;68949;53.176;18.088;2023-07-20T09:46:17;2.20;;;0.60;;
79487;SDS011;68949;53.176;18.088;2023-07-20T09:48:54;2.30;;;0.50;;
79487;SDS011;68949;53.176;18.088;2023-07-20T09:51:24;2.30;;;0.80;;
79487;SDS011;68949;53.176;18.088;2023-07-20T09:53:52;2.00;;;0.50;;
79487;SDS011;68949;53.176;18.088;2023-07-20T09:56:22;2.90;;;0.60;;
79487;SDS011;68949;53.176;18.088;2023-07-20T09:58:50;2.70;;;0.70;;
79487;SDS011;68949;53.176;18.088;2023-07-20T10:01:20;1.90;;;0.60;;
79487;SDS011;68949;53.176;18.088;2023-07-20T10:03:56;4.40;;;0.90;;
79487;SDS011;68949;53.176;18.088;2023-07-20T10:06:25;2.20;;;0.50;;
79487;SDS011;68949;53.176;18.088;2023-07-20T10:09:00;2.20;;;0.50;;
79487;SDS011;68949;53.176;18.088;2023-07-20T10:11:31;2.70;;;0.80;;
79487;SDS011;68949;53.176;18.088;2023-07-20T10:14:03;1.60;;;0.60;;
79487;SDS011;68949;53.176;18.088;2023-07-20T10:16:43;2.00;;;0.50;;
79487;SDS011;68949;53.176;18.088;2023-07-20T10:19:43;1.60;;;0.40;;
79487;SDS011;68949;53.176;18.088;2023-07-20T10:22:24;2.10;;;0.70;;
79487;SDS011;68949;53.176;18.088;2023-07-20T10:24:53;1.70;;;0.50;;
79487;SDS011;68949;53.176;18.088;2023-07-20T10:27:21;2.90;;;0.60;;
79487;SDS011;68949;53.176;18.088;2023-07-20T10:29:48;2.50;;;0.60;;
79487;SDS011;68949;53.176;18.088;2023-07-20T10:32:17;1.60;;;0.50;;
79487;SDS011;68949;53.176;18.088;2023-07-20T10:34:52;1.90;;;0.40;;
79487;SDS011;68949;53.176;18.088;2023-07-20T10:37:55;2.10;;;0.50;;
79487;SDS011;68949;53.176;18.088;2023-07-20T10:40:33;3.70;;;0.60;;
79487;SDS011;68949;53.176;18.088;2023-07-20T10:43:08;2.70;;;0.60;;
79487;SDS011;68949;53.176;18.088;2023-07-20T10:45:41;2.10;;;0.50;;
79487;SDS011;68949;53.176;18.088;2023-07-20T10:48:22;3.50;;;0.60;;
79487;SDS011;68949;53.176;18.088;2023-07-20T10:51:20;2.10;;;0.60;;
79487;SDS011;68949;53.176;18.088;2023-07-20T10:53:50;1.90;;;0.50;;
79487;SDS011;68949;53.176;18.088;2023-07-20T10:56:21;2.10;;;0.60;;
79487;SDS011;68949;53.176;18.088;2023-07-20T10:58:56;1.90;;;0.50;;
79487;SDS011;68949;53.176;18.088;2023-07-20T11:01:28;3.20;;;0.50;;
79487;SDS011;68949;53.176;18.088;2023-07-20T11:03:58;4.10;;;0.60;;
79487;SDS011;68949;53.176;18.088;2023-07-20T11:06:30;1.70;;;0.50;;
79487;SDS011;68949;53.176;18.088;2023-07-20T11:09:07;2.20;;;0.50;;
79487;SDS011;68949;53.176;18.088;2023-07-20T11:11:38;2.10;;;0.50;;
79487;SDS011;68949;53.176;18.088;2023-07-20T11:14:11;1.60;;;0.50;;
79487;SDS011;68949;53.176;18.088;2023-07-20T11:16:52;1.90;;;0.50;;
79487;SDS011;68949;53.176;18.088;2023-07-20T11:19:24;2.10;;;0.50;;
79487;SDS011;68949;53.176;18.088;2023-07-20T11:21:54;2.40;;;0.60;;
79487;SDS011;68949;53.176;18.088;2023-07-20T11:24:24;2.90;;;0.80;;
79487;SDS011;68949;53.176;18.088;2023-07-20T11:26:53;2.60;;;0.60;;
79487;SDS011;68949;53.176;18.088;2023-07-20T11:29:23;2.20;;;0.50;;
79487;SDS011;68949;53.176;18.088;2023-07-20T11:31:56;4.30;;;1.10;;
79487;SDS011;68949;53.176;18.088;2023-07-20T11:34:25;2.20;;;0.70;;
79487;SDS011;68949;53.176;18.088;2023-07-20T11:36:51;1.80;;;0.60;;
79487;SDS011;68949;53.176;18.088;2023-07-20T11:39:20;3.40;;;0.60;;
79487;SDS011;68949;53.176;18.088;2023-07-20T11:41:53;1.60;;;0.40;;
79487;SDS011;68949;53.176;18.088;2023-07-20T11:44:25;1.60;;;0.40;;
79487;SDS011;68949;53.176;18.088;2023-07-20T11:47:11;2.90;;;0.50;;
79487;SDS011;68949;53.176;18.088;2023-07-20T11:49:40;3.70;;;0.50;;
79487;SDS011;68949;53.176;18.088;2023-07-20T11:52:14;1.00;;;0.20;;
79487;SDS011;68949;53.176;18.088;2023-07-20T11:54:43;0.90;;;0.20;;
79487;SDS011;68949;53.176;18.088;2023-07-20T11:57:18;2.10;;;0.50;;
79487;SDS011;68949;53.176;18.088;2023-07-20T11:59:58;1.20;;;0.20;;
79487;SDS011;68949;53.176;18.088;2023-07-20T12:02:32;0.90;;;0.10;;
79487;SDS011;68949;53.176;18.088;2023-07-20T12:04:59;1.70;;;0.20;;
79487;SDS011;68949;53.176;18.088;2023-07-20T12:07:27;2.40;;;0.30;;
79487;SDS011;68949;53.176;18.088;2023-07-20T12:12:41;1.90;;;0.40;;
79487;SDS011;68949;53.176;18.088;2023-07-20T12:15:27;3.80;;;0.50;;
79487;SDS011;68949;53.176;18.088;2023-07-20T12:17:57;2.00;;;0.40;;
79487;SDS011;68949;53.176;18.088;2023-07-20T12:20:30;2.30;;;0.40;;
79487;SDS011;68949;53.176;18.088;2023-07-20T12:23:03;1.40;;;0.30;;
79487;SDS011;68949;53.176;18.088;2023-07-20T12:25:45;2.60;;;0.50;;
79487;SDS011;68949;53.176;18.088;2023-07-20T12:28:15;2.30;;;0.60;;
79487;SDS011;68949;53.176;18.088;2023-07-20T12:30:44;3.60;;;0.50;;
79487;SDS011;68949;53.176;18.088;2023-07-20T12:33:13;2.20;;;0.50;;
79487;SDS011;68949;53.176;18.088;2023-07-20T12:35:42;2.70;;;0.60;;
79487;SDS011;68949;53.176;18.088;2023-07-20T12:38:09;3.30;;;0.60;;
79487;SDS011;68949;53.176;18.088;2023-07-20T12:40:36;2.60;;;0.40;;
79487;SDS011;68949;53.176;18.088;2023-07-20T12:43:06;2.60;;;0.40;;
79487;SDS011;68949;53.176;18.088;2023-07-20T12:45:33;1.90;;;0.40;;
79487;SDS011;68949;53.176;18.088;2023-07-20T12:48:00;1.60;;;0.40;;
79487;SDS011;68949;53.176;18.088;2023-07-20T12:50:27;3.20;;;0.60;;
79487;SDS011;68949;53.176;18.088;2023-07-20T12:52:54;2.00;;;0.40;;
79487;SDS011;68949;53.176;18.088;2023-07-20T12:55:20;1.80;;;0.50;;
79487;SDS011;68949;53.176;18.088;2023-07-20T12:57:47;1.60;;;0.50;;
79487;SDS011;68949;53.176;18.088;2023-07-20T13:00:15;2.00;;;0.40;;
79487;SDS011;68949;53.176;18.088;2023-07-20T13:02:43;1.30;;;0.30;;
79487;SDS011;68949;53.176;18.088;2023-07-20T13:05:10;1.50;;;0.50;;
79487;SDS011;68949;53.176;18.088;2023-07-20T13:07:38;2.70;;;0.50;;
79487;SDS011;68949;53.176;18.088;2023-07-20T13:10:05;3.10;;;0.70;;
79487;SDS011;68949;53.176;18.088;2023-07-20T13:12:34;2.20;;;0.70;;
79487;SDS011;68949;53.176;18.088;2023-07-20T13:15:06;2.00;;;0.60;;
79487;SDS011;68949;53.176;18.088;2023-07-20T13:17:35;1.40;;;0.40;;
79487;SDS011;68949;53.176;18.088;2023-07-20T13:20:04;2.50;;;0.60;;
79487;SDS011;68949;53.176;18.088;2023-07-20T13:22:33;1.80;;;0.50;;
79487;SDS011;68949;53.176;18.088;2023-07-20T13:25:00;1.80;;;0.60;;
79487;SDS011;68949;53.176;18.088;2023-07-20T13:27:30;1.80;;;0.50;;
79487;SDS011;68949;53.176;18.088;2023-07-20T13:30:00;1.60;;;0.40;;
79487;SDS011;68949;53.176;18.088;2023-07-20T13:32:27;1.40;;;0.30;;
79487;SDS011;68949;53.176;18.088;2023-07-20T13:34:54;1.30;;;0.30;;
79487;SDS011;68949;53.176;18.088;2023-07-20T13:37:21;1.60;;;0.50;;
79487;SDS011;68949;53.176;18.088;2023-07-20T13:39:48;1.50;;;0.50;;
79487;SDS011;68949;53.176;18.088;2023-07-20T13:42:14;1.80;;;0.50;;
79487;SDS011;68949;53.176;18.088;2023-07-20T13:44:41;1.90;;;0.50;;
79487;SDS011;68949;53.176;18.088;2023-07-20T13:47:08;1.20;;;0.40;;
79487;SDS011;68949;53.176;18.088;2023-07-20T13:49:34;1.70;;;0.50;;
79487;SDS011;68949;53.176;18.088;2023-07-20T13:52:01;1.30;;;0.40;;
79487;SDS011;68949;53.176;18.088;2023-07-20T13:54:28;2.00;;;0.50;;
79487;SDS011;68949;53.176;18.088;2023-07-20T13:56:55;1.90;;;0.50;;
79487;SDS011;68949;53.176;18.088;2023-07-20T13:59:22;1.10;;;0.30;;
79487;SDS011;68949;53.176;18.088;2023-07-20T14:01:49;1.40;;;0.40;;
79487;SDS011;68949;53.176;18.088;2023-07-20T14:04:16;1.90;;;0.50;;
79487;SDS011;68949;53.176;18.088;2023-07-20T14:06:42;2.00;;;0.60;;
79487;SDS011;68949;53.176;18.088;2023-07-20T14:09:10;1.80;;;0.60;;
79487;SDS011;68949;53.176;18.088;2023-07-20T14:11:36;2.00;;;0.50;;
79487;SDS011;68949;53.176;18.088;2023-07-20T14:14:03;1.70;;;0.60;;
79487;SDS011;68949;53.176;18.088;2023-07-20T14:16:30;1.60;;;0.60;;
79487;SDS011;68949;53.176;18.088;2023-07-20T14:18:58;1.40;;;0.50;;
79487;SDS011;68949;53.176;18.088;2023-07-20T14:21:25;2.10;;;0.60;;
79487;SDS011;68949;53.176;18.088;2023-07-20T14:23:52;2.00;;;0.60;;
79487;SDS011;68949;53.176;18.088;2023-07-20T14:26:21;1.20;;;0.40;;
79487;SDS011;68949;53.176;18.088;2023-07-20T14:28:48;2.50;;;0.40;;
79487;SDS011;68949;53.176;18.088;2023-07-20T14:31:15;1.50;;;0.40;;
79487;SDS011;68949;53.176;18.088;2023-07-20T14:33:42;2.10;;;0.40;;
79487;SDS011;68949;53.176;18.088;2023-07-20T14:36:08;1.90;;;0.40;;
79487;SDS011;68949;53.176;18.088;2023-07-20T14:38:35;1.60;;;0.40;;
79487;SDS011;68949;53.176;18.088;2023-07-20T14:41:03;1.90;;;0.40;;
79487;SDS011;68949;53.176;18.088;2023-07-20T14:43:32;1.00;;;0.30;;
79487;SDS011;68949;53.176;18.088;2023-07-20T14:45:59;1.60;;;0.40;;
79487;SDS011;68949;53.176;18.088;2023-07-20T14:48:25;1.60;;;0.50;;
79487;SDS011;68949;53.176;18.088;2023-07-20T14:50:52;1.60;;;0.40;;
79487;SDS011;68949;53.176;18.088;2023-07-20T14:53:19;1.40;;;0.40;;